createdAt,value
2018-11-21T00:01:37.102Z,28.10
2018-11-21T00:06:29.952Z,27.87
2018-11-21T00:11:22.616Z,29.97
2018-11-21T00:16:15.002Z,27.90
2018-11-21T00:21:07.904Z,27.07
2018-11-21T00:26:01.165Z,26.00
2018-11-21T00:30:53.892Z,26.73
2018-11-21T00:35:46.635Z,26.13
2018-11-21T00:40:39.527Z,27.53
2018-11-21T00:45:32.206Z,27.07
2018-11-21T00:50:25.188Z,25.43
2018-11-21T00:55:18.296Z,29.60
2018-11-21T01:00:12.232Z,27.80
2018-11-21T01:05:05.493Z,28.33
2018-11-21T01:09:58.063Z,25.73
2018-11-21T01:14:50.273Z,26.43
2018-11-21T01:19:42.696Z,26.33
2018-11-21T01:24:34.954Z,29.57
2018-11-21T01:29:27.634Z,28.53
2018-11-21T01:34:20.139Z,27.93
2018-11-21T01:39:13.162Z,29.37
2018-11-21T01:44:07.203Z,27.90
2018-11-21T01:48:59.825Z,27.27
2018-11-21T01:53:53.269Z,27.50
2018-11-21T01:58:45.761Z,27.00
2018-11-21T02:03:39.351Z,30.73
2018-11-21T02:08:32.953Z,28.73
2018-11-21T02:13:26.709Z,29.07
2018-11-21T02:18:23.469Z,29.57
2018-11-21T02:23:16.104Z,29.00
2018-11-21T02:28:08.752Z,30.70
2018-11-21T02:33:04.203Z,30.80
2018-11-21T02:37:57.327Z,31.93
2018-11-21T02:42:53.533Z,33.20
2018-11-21T02:47:46.020Z,29.97
2018-11-21T02:52:39.066Z,30.10
2018-11-21T02:57:33.154Z,32.87
2018-11-21T03:02:26.036Z,32.57
2018-11-21T03:07:19.721Z,32.63
2018-11-21T03:12:11.955Z,31.10
2018-11-21T03:17:04.601Z,34.53
2018-11-21T03:21:57.236Z,30.87
2018-11-21T03:26:49.842Z,30.77
2018-11-21T03:31:42.455Z,35.07
2018-11-21T03:36:35.379Z,32.20
2018-11-21T03:41:27.813Z,33.67
2018-11-21T03:46:20.277Z,35.13
2018-11-21T03:51:13.266Z,31.63
2018-11-21T03:56:06.528Z,34.20
2018-11-21T04:00:58.708Z,30.57
2018-11-21T04:05:51.044Z,34.87
2018-11-21T04:10:43.769Z,36.10
2018-11-21T04:15:36.277Z,31.40
2018-11-21T04:20:28.437Z,33.93
2018-11-21T04:25:21.099Z,36.63
2018-11-21T04:30:13.864Z,35.27
2018-11-21T04:35:08.198Z,34.53
2018-11-21T04:40:01.023Z,36.40
2018-11-21T04:44:53.223Z,34.13
2018-11-21T04:49:46.308Z,35.97
2018-11-21T04:54:38.808Z,36.23
2018-11-21T04:59:31.370Z,33.17
2018-11-21T05:04:23.798Z,31.03
2018-11-21T05:09:16.645Z,35.30
2018-11-21T05:14:09.152Z,31.33
2018-11-21T05:19:01.622Z,30.87
2018-11-21T05:23:54.585Z,35.73
2018-11-21T05:28:46.935Z,32.97
2018-11-21T05:33:39.865Z,34.80
2018-11-21T05:38:32.451Z,32.17
2018-11-21T05:43:24.850Z,32.60
2018-11-21T05:48:17.254Z,32.57
2018-11-21T05:53:10.154Z,35.37
2018-11-21T05:58:03.033Z,31.93
2018-11-21T06:02:55.171Z,36.37
2018-11-21T06:07:47.806Z,31.80
2018-11-21T06:12:40.711Z,35.80
2018-11-21T06:17:33.786Z,33.23
2018-11-21T06:22:26.327Z,32.07
2018-11-21T06:27:19.532Z,30.53
2018-11-21T06:32:11.737Z,33.37
2018-11-21T06:37:04.393Z,33.30
2018-11-21T06:41:56.992Z,34.33
2018-11-21T06:46:49.448Z,31.63
2018-11-21T06:51:41.670Z,35.07
2018-11-21T06:56:34.172Z,34.93
2018-11-21T07:01:26.679Z,33.10
2018-11-21T07:06:25.851Z,35.50
2018-11-21T07:11:18.361Z,36.30
2018-11-21T07:16:12.886Z,35.70
2018-11-21T07:21:06.409Z,34.73
2018-11-21T07:25:59.375Z,37.87
2018-11-21T07:30:51.950Z,40.87
2018-11-21T07:35:44.801Z,35.33
2018-11-21T07:40:38.405Z,36.70
2018-11-21T07:45:31.352Z,35.97
2018-11-21T07:50:24.605Z,37.90
2018-11-21T07:55:17.850Z,35.67
2018-11-21T08:01:25.686Z,33.47
2018-11-21T08:06:23.383Z,33.17
2018-11-21T08:11:33.138Z,37.30
2018-11-21T08:16:43.762Z,36.13
2018-11-21T08:21:53.812Z,36.20
2018-11-21T08:27:04.389Z,34.77
2018-11-21T08:31:57.275Z,31.60
2018-11-21T08:36:50.251Z,34.83
2018-11-21T08:41:43.311Z,32.90
2018-11-21T08:46:36.130Z,32.30
2018-11-21T08:51:28.647Z,33.70
2018-11-21T08:56:21.685Z,32.93
2018-11-21T09:01:14.605Z,33.90
2018-11-21T09:06:07.112Z,32.47
2018-11-21T09:11:00.128Z,36.80
2018-11-21T09:15:53.467Z,31.83
2018-11-21T09:20:45.828Z,32.30
2018-11-21T09:25:39.014Z,31.37
2018-11-21T09:30:31.506Z,28.73
2018-11-21T09:35:24.472Z,29.33
2018-11-21T09:40:18.557Z,30.83
2018-11-21T09:45:12.985Z,29.23
2018-11-21T09:50:10.945Z,28.70
2018-11-21T09:55:03.176Z,32.23
2018-11-21T09:59:55.893Z,27.17
2018-11-21T10:04:49.042Z,27.30
2018-11-21T10:09:43.957Z,27.90
2018-11-21T10:14:36.456Z,28.13
2018-11-21T10:19:29.700Z,29.87
2018-11-21T10:24:22.356Z,25.77
2018-11-21T10:29:14.608Z,28.80
2018-11-21T10:34:07.110Z,30.57
2018-11-21T10:38:59.785Z,28.43
2018-11-21T10:43:52.100Z,29.20
2018-11-21T10:48:44.835Z,32.63
2018-11-21T10:53:37.500Z,26.53
2018-11-21T10:58:29.670Z,24.30
2018-11-21T11:03:24.200Z,26.93
2018-11-21T11:08:35.603Z,32.77
2018-11-21T11:13:46.053Z,27.43
2018-11-21T11:19:04.054Z,25.50
2018-11-21T11:24:27.758Z,26.80
2018-11-21T11:29:54.705Z,27.40
2018-11-21T11:35:05.145Z,26.03
2018-11-21T11:40:16.988Z,27.33
2018-11-21T11:45:27.332Z,26.47
2018-11-21T11:50:37.750Z,28.37
2018-11-21T11:55:48.419Z,25.33
2018-11-21T12:01:04.615Z,27.50
2018-11-21T12:06:14.908Z,28.87
2018-11-21T12:11:25.507Z,27.50
2018-11-21T12:16:30.954Z,27.20
2018-11-21T12:21:42.504Z,27.07
2018-11-21T12:26:54.868Z,27.63
2018-11-21T12:32:12.782Z,27.87
2018-11-21T12:37:33.881Z,25.27
2018-11-21T12:42:54.400Z,29.23
2018-11-21T12:48:05.008Z,27.63
2018-11-21T12:53:19.327Z,26.83
2018-11-21T12:58:27.654Z,28.27
2018-11-21T13:03:39.044Z,26.13
2018-11-21T13:08:49.848Z,25.60
2018-11-21T13:14:07.525Z,28.17
2018-11-21T13:19:27.962Z,29.83
2018-11-21T13:24:38.151Z,28.00
2018-11-21T13:29:50.095Z,28.17
2018-11-21T13:35:00.289Z,26.37
2018-11-21T13:40:13.248Z,29.40
2018-11-21T13:45:31.550Z,30.00
2018-11-21T13:50:52.185Z,28.20
2018-11-21T13:55:44.941Z,29.57
2018-11-21T14:00:37.416Z,29.70
2018-11-21T14:05:30.046Z,31.20
2018-11-21T14:10:22.232Z,30.80
2018-11-21T14:15:14.735Z,29.53
2018-11-21T14:20:09.914Z,30.47
2018-11-21T14:25:02.476Z,29.87
2018-11-21T14:29:55.033Z,31.43
2018-11-21T14:34:47.802Z,30.80
2018-11-21T14:39:40.256Z,31.20
2018-11-21T14:44:32.811Z,32.60
2018-11-21T14:49:25.435Z,31.13
2018-11-21T14:54:18.156Z,33.67
2018-11-21T14:59:10.811Z,29.10
2018-11-21T15:04:03.799Z,30.00
2018-11-21T15:08:56.450Z,30.83
2018-11-21T15:13:48.750Z,29.90
2018-11-21T15:18:41.142Z,31.80
2018-11-21T15:23:33.917Z,32.03
2018-11-21T15:28:26.336Z,32.23
2018-11-21T15:33:18.672Z,30.27
2018-11-21T15:38:11.374Z,31.60
2018-11-21T15:43:03.844Z,30.83
2018-11-21T15:48:00.459Z,29.93
2018-11-21T15:52:53.284Z,32.97
2018-11-21T15:57:45.990Z,36.73
2018-11-21T16:02:38.461Z,30.87
2018-11-21T16:07:30.969Z,31.60
2018-11-21T16:12:23.594Z,31.93
2018-11-21T16:17:16.480Z,26.03
2018-11-21T16:22:09.045Z,31.10
2018-11-21T16:27:01.586Z,32.20
2018-11-21T16:31:54.583Z,32.47
2018-11-21T16:36:47.198Z,34.83
2018-11-21T16:41:39.585Z,32.37
2018-11-21T16:46:32.252Z,35.03
2018-11-21T16:51:24.929Z,31.50
2018-11-21T16:56:17.236Z,32.77
2018-11-21T17:01:09.323Z,35.23
2018-11-21T17:06:03.078Z,35.93
